Terminal Aerodrome Forecast
Issued by NWS Jackson, KY

Home | Current Version | Previous Version | Text Only | Print | Product List | Glossary On
Versions: 1 2 3 4 5 6 7 8 9 10 11 12 13 14 15 16 17
817
FTUS43 KJKL 271459 AAB
TAFLOZ
TAF AMD
KLOZ 271459Z 2715/2812 00000KT 1 1/2SM RA BR VCSH FEW040 BKN080
      OVC100
     FM271600 23006KT P6SM VCTS BKN050CB
     FM280000 14004KT 3SM SHRA OVC050
     FM280600 18004KT P6SM VCSH OVC070=

USA.gov is the U.S. government's official web portal to all federal, state and local government web resources and services.